地図

経路データ

SID SEASON NUMBER BASIN SUBBASIN NAME ISO_TIME NATURE LAT LON WMO_WIND WMO_PRES WMO_AGENCY TRACK_TYPE DIST2LAND LANDFALL IFLAG USA_AGENCY USA_ATCF_ID USA_LAT USA_LON USA_RECORD USA_STATUS USA_WIND USA_PRES USA_SSHS USA_R34_NE USA_R34_SE USA_R34_SW USA_R34_NW USA_R50_NE USA_R50_SE USA_R50_SW USA_R50_NW USA_R64_NE USA_R64_SE USA_R64_SW USA_R64_NW USA_POCI USA_ROCI USA_RMW USA_EYE TOKYO_LAT TOKYO_LON TOKYO_GRADE TOKYO_WIND TOKYO_PRES TOKYO_R50_DIR TOKYO_R50_LONG TOKYO_R50_SHORT TOKYO_R30_DIR TOKYO_R30_LONG TOKYO_R30_SHORT TOKYO_LAND CMA_LAT CMA_LON CMA_CAT CMA_WIND CMA_PRES HKO_LAT HKO_LON HKO_CAT HKO_WIND HKO_PRES NEWDELHI_LAT NEWDELHI_LON NEWDELHI_GRADE NEWDELHI_WIND NEWDELHI_PRES NEWDELHI_CI NEWDELHI_DP NEWDELHI_POCI REUNION_LAT REUNION_LON REUNION_TYPE REUNION_WIND REUNION_PRES REUNION_TNUM REUNION_CI REUNION_RMW REUNION_R34_NE REUNION_R34_SE REUNION_R34_SW REUNION_R34_NW REUNION_R50_NE REUNION_R50_SE REUNION_R50_SW REUNION_R50_NW REUNION_R64_NE REUNION_R64_SE REUNION_R64_SW REUNION_R64_NW BOM_LAT BOM_LON BOM_TYPE BOM_WIND BOM_PRES BOM_TNUM BOM_CI BOM_RMW BOM_R34_NE BOM_R34_SE BOM_R34_SW BOM_R34_NW BOM_R50_NE BOM_R50_SE BOM_R50_SW BOM_R50_NW BOM_R64_NE BOM_R64_SE BOM_R64_SW BOM_R64_NW BOM_ROCI BOM_POCI BOM_EYE BOM_POS_METHOD BOM_PRES_METHOD NADI_LAT NADI_LON NADI_CAT NADI_WIND NADI_PRES WELLINGTON_LAT WELLINGTON_LON WELLINGTON_WIND WELLINGTON_PRES DS824_LAT DS824_LON DS824_STAGE DS824_WIND DS824_PRES TD9636_LAT TD9636_LON TD9636_STAGE TD9636_WIND TD9636_PRES TD9635_LAT TD9635_LON TD9635_WIND TD9635_PRES TD9635_ROCI NEUMANN_LAT NEUMANN_LON NEUMANN_CLASS NEUMANN_WIND NEUMANN_PRES MLC_LAT MLC_LON MLC_CLASS MLC_WIND MLC_PRES USA_GUST BOM_GUST BOM_GUST_PER REUNION_GUST REUNION_GUST_PER USA_SEAHGT USA_SEARAD_NE USA_SEARAD_SE USA_SEARAD_SW USA_SEARAD_NW STORM_SPEED STORM_DIR
1960091S10077 1960 15 SI MM NOT_NAMED 1960-03-30 18:00:00 TS -9.60000 76.6000 main 1792 1792 O________OO___ jtwc_sh SH211960 -9.60000 76.6000 -1 -9.60000 76.6000 TC -9.60000 76.6000 7 4 236
1960091S10077 1960 15 SI MM NOT_NAMED 1960-03-30 21:00:00 TS -9.70002 76.4520 main 1806 1806 P________PP___ SH211960 -9.70000 76.4600 -1 -9.70000 76.4600 TC -9.70004 76.4360 7 4 237
1960091S10077 1960 15 SI MM NOT_NAMED 1960-03-31 00:00:00 TS -9.80001 76.2892 main 1822 1822 O________OP___ jtwc_sh SH211960 -9.80000 76.3000 -1 -9.80000 76.3000 TC -9.80004 76.2676 7 4 240
1960091S10077 1960 15 SI MM NOT_NAMED 1960-03-31 03:00:00 TS -9.90001 76.1018 main 1839 1839 P________PP___ SH211960 -9.90000 76.1075 -1 -9.90000 76.1075 TC -9.90002 76.0904 7 4 243
1960091S10077 1960 15 SI MM NOT_NAMED 1960-03-31 06:00:00 TS -10.0000 75.9000 main 1856 1856 O________OO___ jtwc_sh SH211960 -10.0000 75.9000 -1 -10.0000 75.9000 TC 25 -10.0000 75.9000 7 4 244
1960091S10077 1960 15 SI MM NOT_NAMED 1960-03-31 09:00:00 TS -10.0955 75.7028 main 1873 1873 P________PP___ SH211960 -10.0925 75.7075 -1 -10.0925 75.7075 TC 25 -10.1015 75.6933 7 5 243
1960091S10077 1960 15 SI MM NOT_NAMED 1960-03-31 12:00:00 TS -10.2042 75.4908 main 1890 1890 O________OP___ jtwc_sh SH211960 -10.2000 75.5000 -1 -10.2000 75.5000 TC 25 -10.2125 75.4723 7 5 241
1960091S10077 1960 15 SI MM NOT_NAMED 1960-03-31 15:00:00 TS -10.3374 75.2517 main 1907 1907 P________PP___ SH211960 -10.3350 75.2575 -1 -10.3350 75.2575 TC 30 -10.3422 75.2402 7 6 239
1960091S10077 1960 15 SI MM NOT_NAMED 1960-03-31 18:00:00 TS -10.5000 75.0000 main 1939 1939 O________OO___ jtwc_sh SH211960 -10.5000 75.0000 -1 -10.5000 75.0000 TC 35 -10.5000 75.0000 2 6 235
1960091S10077 1960 15 SI MM NOT_NAMED 1960-03-31 21:00:00 TS -10.6860 74.7497 main 1971 1971 P________PP___ SH211960 -10.6850 74.7500 -1 -10.6850 74.7500 TC 35 -10.6881 74.7491 2 6 231
1960091S10077 1960 15 SI MM NOT_NAMED 1960-04-01 00:00:00 TS -10.9017 74.4975 main 1999 1999 O________OP___ jtwc_sh SH211960 -10.9000 74.5000 -1 -10.9000 74.5000 TC 35 -10.9050 74.4925 2 7 227
1960091S10077 1960 15 SI MM NOT_NAMED 1960-04-01 03:00:00 TS -11.1431 74.2416 main 2031 1996 P________PP___ SH211960 -11.1425 74.2425 -1 -11.1425 74.2425 TC 35 -11.1444 74.2397 2 7 224
1960091S10077 1960 15 SI MM NOT_NAMED 1960-04-01 06:00:00 TS -11.4000 74.0000 main 1996 1965 O________OO___ jtwc_sh SH211960 -11.4000 74.0000 -1 -11.4000 74.0000 TC 35 -11.4000 74.0000 2 7 222
1960091S10077 1960 15 SI MM NOT_NAMED 1960-04-01 09:00:00 TS -11.6431 73.7847 main 1965 1930 P________PP___ SH211960 -11.6425 73.7924 -1 -11.6425 73.7924 TC 35 -11.6444 73.7693 2 6 219
1960091S10077 1960 15 SI MM NOT_NAMED 1960-04-01 12:00:00 TS -11.9017 73.5850 main 1930 1894 O________OP___ jtwc_sh SH211960 -11.9000 73.6000 -1 -11.9000 73.6000 TC 35 -11.9050 73.5549 2 7 216
1960091S10077 1960 15 SI MM NOT_NAMED 1960-04-01 15:00:00 TS -12.1861 73.3777 main 1894 1858 P________PP___ SH211960 -12.1850 73.3850 -1 -12.1850 73.3850 TC 35 -12.1881 73.3631 2 7 212
1960091S10077 1960 15 SI MM NOT_NAMED 1960-04-01 18:00:00 TS -12.5000 73.2000 main 1858 1832 O________OO___ jtwc_sh SH211960 -12.5000 73.2000 -1 -12.5000 73.2000 TC 35 -12.5000 73.2000 2 7 204
1960091S10077 1960 15 SI MM NOT_NAMED 1960-04-01 21:00:00 TS -12.8387 73.0776 main 1832 1801 P________PP___ SH211960 -12.8350 73.0849 -1 -12.8350 73.0849 TC 35 -12.8462 73.0630 2 7 197
1960091S10077 1960 15 SI MM NOT_NAMED 1960-04-02 00:00:00 TS -13.2066 72.9850 main 1801 1771 O________OP___ jtwc_sh SH211960 -13.2000 73.0000 -1 -13.2000 73.0000 TC 35 -13.2199 72.9549 2 8 194
1960091S10077 1960 15 SI MM NOT_NAMED 1960-04-02 03:00:00 TS -13.6029 72.8848 main 1771 1741 P________PP___ SH211960 -13.6000 72.8925 -1 -13.6000 72.8925 TC 35 -13.6087 72.8693 2 8 193
1960091S10077 1960 15 SI MM NOT_NAMED 1960-04-02 06:00:00 TS -14.0000 72.8000 main 1741 1717 O________OO___ jtwc_sh SH211960 -14.0000 72.8000 -1 -14.0000 72.8000 TC 35 -14.0000 72.8000 2 8 190
1960091S10077 1960 15 SI MM NOT_NAMED 1960-04-02 09:00:00 TS -14.3610 72.7415 main 1712 1698 P________PP___ SH211960 -14.3500 72.7424 -1 -14.3500 72.7424 TC 35 -14.3831 72.7395 2 7 188
1960091S10077 1960 15 SI MM NOT_NAMED 1960-04-02 12:00:00 TS -14.7216 72.6974 main 1698 1681 O________OP___ jtwc_sh SH211960 -14.7000 72.7000 -1 -14.7000 72.7000 TC 35 -14.7649 72.6922 2 8 187
1960091S10077 1960 15 SI MM NOT_NAMED 1960-04-02 15:00:00 TS -15.1181 72.6496 main 1671 1654 P________PP___ SH211960 -15.1075 72.6500 -1 -15.1075 72.6500 TC 35 -15.1393 72.6489 2 8 187
1960091S10077 1960 15 SI MM NOT_NAMED 1960-04-02 18:00:00 TS -15.5000 72.6000 main 1654 1643 O________OO___ jtwc_sh SH211960 -15.5000 72.6000 -1 -15.5000 72.6000 TC 35 -15.5000 72.6000 2 7 187
1960091S10077 1960 15 SI MM NOT_NAMED 1960-04-02 21:00:00 TS -15.8140 72.5543 main 1643 1621 P________PP___ SH211960 -15.8075 72.5574 -1 -15.8075 72.5574 TC 35 -15.8271 72.5481 2 6 189
1960091S10077 1960 15 SI MM NOT_NAMED 1960-04-03 00:00:00 TS -16.1141 72.4957 main 1621 1600 O________OP___ jtwc_sh SH211960 -16.1000 72.5000 -1 -16.1000 72.5000 TC 35 -16.1424 72.4870 2 6 192
1960091S10077 1960 15 SI MM NOT_NAMED 1960-04-03 03:00:00 TS -16.4438 72.4174 main 1600 1577 P________PP___ SH211960 -16.4350 72.4224 -1 -16.4350 72.4224 TC 35 -16.4615 72.4074 2 7 196
1960091S10077 1960 15 SI MM NOT_NAMED 1960-04-03 06:00:00 TS -16.8000 72.3000 main 1577 1544 O________OO___ jtwc_sh SH211960 -16.8000 72.3000 -1 -16.8000 72.3000 TC 35 -16.8000 72.3000 2 8 201
1960091S10077 1960 15 SI MM NOT_NAMED 1960-04-03 09:00:00 TS -17.1879 72.1124 main 1544 1512 P________PP___ SH211960 -17.1925 72.1076 -1 -17.1925 72.1076 TC 35 -17.1786 72.1219 2 9 205
1960091S10077 1960 15 SI MM NOT_NAMED 1960-04-03 12:00:00 TS -17.5926 71.9070 main 1512 1482 O________OP___ jtwc_sh SH211960 -17.6000 71.9000 -1 -17.6000 71.9000 TC 35 -17.5778 71.9210 2 9 205
1960091S10077 1960 15 SI MM NOT_NAMED 1960-04-03 15:00:00 TS -17.9960 71.7249 main 1482 1462 P________PP___ SH211960 -18.0000 71.7200 -1 -18.0000 71.7200 TC 35 -17.9880 71.7345 2 9 200
1960091S10077 1960 15 SI MM NOT_NAMED 1960-04-03 18:00:00 TS -18.4000 71.6000 main 1462 1455 O________OO___ jtwc_sh SH211960 -18.4000 71.6000 -1 -18.4000 71.6000 TC 35 -18.4000 71.6000 2 8 191
1960091S10077 1960 15 SI MM NOT_NAMED 1960-04-03 21:00:00 TS -18.7878 71.5636 main 1455 1448 P________PP___ SH211960 -18.8000 71.5699 -1 -18.8000 71.5699 TC 35 -18.7634 71.5511 2 8 0
1960091S10077 1960 15 SI MM NOT_NAMED 1960-04-04 00:00:00 TS -19.1775 71.5867 main 1448 1445 O________OP___ jtwc_sh SH211960 -19.2000 71.6000 -1 -19.2000 71.6000 TC 35 -19.1324 71.5600 2 8 176
1960091S10077 1960 15 SI MM NOT_NAMED 1960-04-04 03:00:00 TS -19.5584 71.6280 main 1444 1442 P________PP___ SH211960 -19.5700 71.6351 -1 -19.5700 71.6351 TC 50 -19.5353 71.6139 2 8 173
1960091S10077 1960 15 SI MM NOT_NAMED 1960-04-04 06:00:00 TS -20.0000 71.7000 main 1450 1449 O________OO___ jtwc_sh SH211960 -20.0000 71.7000 -1 -20.0000 71.7000 TC 65 -20.0000 71.7000 4 10 172
1960091S10077 1960 15 SI MM NOT_NAMED 1960-04-04 09:00:00 TS -20.5672 71.7808 main 1458 1458 P________PP___ SH211960 -20.5625 71.7851 -1 -20.5625 71.7851 TC 65 -20.5765 71.7721 4 12 171
1960091S10077 1960 15 SI MM NOT_NAMED 1960-04-04 12:00:00 TS -21.2041 71.8918 main 1468 1468 O________OP___ jtwc_sh SH211960 -21.2000 71.9000 -1 -21.2000 71.9000 TC 65 -21.2123 71.8755 4 13 170
1960091S10077 1960 15 SI MM NOT_NAMED 1960-04-04 15:00:00 TS -21.8657 72.0287 main 1483 1483 P________PP___ SH211960 -21.8650 72.0350 -1 -21.8650 72.0350 TC 65 -21.8671 72.0161 4 13 168
1960091S10077 1960 15 SI MM NOT_NAMED 1960-04-04 18:00:00 TS -22.5000 72.2000 main 1509 1509 O________OO___ jtwc_sh SH211960 -22.5000 72.2000 -1 -22.5000 72.2000 TC 65 -22.5000 72.2000 4 12 165
1960091S10077 1960 15 SI MM NOT_NAMED 1960-04-04 21:00:00 TS -23.0140 72.3703 main 1537 1537 P________PP___ SH211960 -23.0149 72.3705 -1 -23.0149 72.3705 TC 65 -23.0122 72.3701 4 11 160
1960091S10077 1960 15 SI MM NOT_NAMED 1960-04-05 00:00:00 TS -23.5011 72.5968 main 1566 1566 O________OP___ jtwc_sh SH211960 -23.5000 72.6000 -1 -23.5000 72.6000 TC 65 -23.5034 72.5904 4 11 154
1960091S10077 1960 15 SI MM NOT_NAMED 1960-04-05 03:00:00 TS -24.0091 72.8908 main 1607 1607 P________PP___ SH211960 -24.0047 72.8910 -1 -24.0047 72.8910 TC 65 -24.0179 72.8903 4 13 150
1960091S10077 1960 15 SI MM NOT_NAMED 1960-04-05 06:00:00 TS -24.6000 73.3000 main 1662 1662 O________OO___ jtwc_sh SH211960 -24.6000 73.3000 -1 -24.6000 73.3000 TC 65 -24.6000 73.3000 4 16 148
1960091S10077 1960 15 SI MM NOT_NAMED 1960-04-05 09:00:00 TS -25.3584 73.8353 main 1733 1733 P________PP___ SH211960 -25.3699 73.8401 -1 -25.3699 73.8401 TC 50 -25.3356 73.8258 4 19 146
1960091S10077 1960 15 SI MM NOT_NAMED 1960-04-05 12:00:00 TS -26.1782 74.4893 main 1826 1826 O________OP___ jtwc_sh SH211960 -26.2000 74.5000 -1 -26.2000 74.5000 TC 35 -26.1347 74.4680 4 20 143
1960091S10077 1960 15 SI MM NOT_NAMED 1960-04-05 15:00:00 TS -26.9718 75.2042 main 1920 1920 P________PP___ SH211960 -26.9870 75.2054 -1 -26.9870 75.2054 TC 30 -26.9414 75.2016 4 20 139
1960091S10077 1960 15 SI MM NOT_NAMED 1960-04-05 18:00:00 TS -27.7000 76.0000 main 2020 2020 O________OO___ jtwc_sh SH211960 -27.7000 76.0000 -1 -27.7000 76.0000 TC 25 -27.7000 76.0000 7 20 132
1960091S10077 1960 15 SI MM NOT_NAMED 1960-04-05 21:00:00 TS -28.2914 76.8722 main 2125 2125 P________PP___ SH211960 -28.2725 76.8863 -1 -28.2725 76.8863 TC 25 -28.3293 76.8441 7 19 126
1960091S10077 1960 15 SI MM NOT_NAMED 1960-04-06 00:00:00 TS -28.8346 77.7793 main 2227 2227 O________OP___ jtwc_sh SH211960 -28.8000 77.8000 -1 -28.8000 77.8000 TC 25 -28.9039 77.7380 7 19 126
1960091S10077 1960 15 SI MM NOT_NAMED 1960-04-06 03:00:00 TS -29.4118 78.6614 main 2299 2256 P________PP___ SH211960 -29.3921 78.6731 -1 -29.3921 78.6731 TC 25 -29.4512 78.6380 7 19 128
1960091S10077 1960 15 SI MM NOT_NAMED 1960-04-06 06:00:00 TS -30.0000 79.5000 main 2256 2213 O________OO___ jtwc_sh SH211960 -30.0000 79.5000 -1 -30.0000 79.5000 TC 25 -30.0000 79.5000 7 18 130
1960091S10077 1960 15 SI MM NOT_NAMED 1960-04-06 09:00:00 TS -30.5978 80.2754 main 2217 2176 P________PP___ SH211960 -30.5994 80.2735 -1 -30.5994 80.2735 TC 25 -30.5946 80.2791 7 18 133
1960091S10077 1960 15 SI MM NOT_NAMED 1960-04-06 12:00:00 TS -31.1991 81.0046 main 2176 2139 O________OP___ jtwc_sh SH211960 -31.2000 81.0000 -1 -31.2000 81.0000 TC 25 -31.1972 81.0137 7 17 134
1960091S10077 1960 15 SI MM NOT_NAMED 1960-04-06 15:00:00 TS -31.8001 81.7112 main 2139 2103 P________PP___ SH211960 -31.7995 81.7085 -1 -31.7995 81.7085 TC 25 -31.8012 81.7165 7 17 135
1960091S10077 1960 15 SI MM NOT_NAMED 1960-04-06 18:00:00 TS -32.4000 82.4000 main 2103 2071 O________OO___ jtwc_sh SH211960 -32.4000 82.4000 -1 -32.4000 82.4000 TC 25 -32.4000 82.4000 7 17 136
1960091S10077 1960 15 SI MM NOT_NAMED 1960-04-06 21:00:00 TS -33.0008 83.0972 main 2071 2037 P________PP___ SH211960 -33.0072 83.1081 -1 -33.0072 83.1081 TC 25 -32.9879 83.0753 7 17 136
1960091S10077 1960 15 SI MM NOT_NAMED 1960-04-07 00:00:00 TS -33.5886 83.7826 main 2042 2015 O________OP___ jtwc_sh SH211960 -33.6000 83.8000 -1 -33.6000 83.8000 TC 25 -33.5658 83.7478 7 16 136
1960091S10077 1960 15 SI MM NOT_NAMED 1960-04-07 03:00:00 TS -34.1523 84.4462 main 2010 1996 P________PP___ SH211960 -34.1606 84.4586 -1 -34.1606 84.4586 TC 25 -34.1359 84.4214 7 16 136
1960091S10077 1960 15 SI MM NOT_NAMED 1960-04-07 06:00:00 TS -34.7000 85.1000 main 1996 O________OO___ jtwc_sh SH211960 -34.7000 85.1000 -1 -34.7000 85.1000 TC 25 -34.7000 85.1000 7 15 135

IBTrACS Databaseについて

本データベースは、米国NOAAが公開する1842年以降の世界の熱帯低気圧のベストトラックデータアーカイブInternational Best Track Archive for Climate Stewardship (IBTrACS)を、ウェブで閲覧しやすい形式に変換したものです。

最終更新日:2021-12-01